Bookmark and Share
Track history (hours):
 

Drifting buoy 46562

Last reported at 2014-Apr-18 09:00 UTC. Time now 2014-Apr-18 10:43 UTC.
Position N 51°28' W 133°31'.

Water temperature 8.1 ° C

NotesDate/timePositionNaut miles runAvg speedWind from/ knotsBaromVisibWave heightAir tempDewpointWater temp
2014-Apr-18 09:00N 51°28' W 133°31'0 0.0 8.1
2014-Apr-18 07:00N 51°28' W 133°31'0 0.3 8.1
2014-Apr-18 06:00N 51°28' W 133°31'0 0.3 8.1
2014-Apr-18 05:00N 51°27' W 133°31'0 0.1 8.1
2014-Apr-18 04:00N 51°27' W 133°31'1 0.8 8.2
2014-Apr-18 03:00N 51°27' W 133°30'0 0.3 8.2
2014-Apr-18 02:00N 51°27' W 133°30'1 0.7 8.2
2014-Apr-18 00:00N 51°27' W 133°27'0 0.4 8.2
2014-Apr-17 23:00N 51°27' W 133°28'0 0.0 8.2
2014-Apr-17 22:00N 51°27' W 133°28'0 0.0 8.2
2014-Apr-17 21:00N 51°27' W 133°28'1 0.6 8.2
2014-Apr-17 20:00N 51°27' W 133°29'0 0.3 8.2
2014-Apr-17 19:00N 51°27' W 133°28'0 0.5 8.2
2014-Apr-17 18:00N 51°27' W 133°29'0 0.3 8.2
2014-Apr-17 17:00N 51°27' W 133°29'1 0.2 8.2
2014-Apr-17 14:00N 51°27' W 133°29'0 0.5 8.1
2014-Apr-17 13:00N 51°27' W 133°30'0 0.4 8.1
2014-Apr-17 12:00N 51°26' W 133°29'1 0.7 8.1
2014-Apr-17 11:00N 51°27' W 133°30'1 0.3 8.1
2014-Apr-17 09:00N 51°27' W 133°29'0 0.1 8.1
2014-Apr-17 06:00N 51°26' W 133°29'0 0.3 8.1
2014-Apr-17 05:00N 51°27' W 133°29'0 0.4 8.1
2014-Apr-17 04:00N 51°27' W 133°28'0 0.0 8.1
2014-Apr-17 03:00N 51°27' W 133°28'0 0.1 8.2
2014-Apr-17 01:00N 51°27' W 133°28'0 0.4 8.1
2014-Apr-17 00:00N 51°26' W 133°29'1 0.6 8.1
2014-Apr-16 23:00N 51°26' W 133°29'0 0.3 8.1
2014-Apr-16 22:00N 51°25' W 133°29'0 0.3 8.1
2014-Apr-16 21:00N 51°26' W 133°29'0 0.3 8.1
2014-Apr-16 20:00N 51°25' W 133°28'1 0.5 8.1
2014-Apr-16 19:00N 51°25' W 133°29'0 0.0 8.1
2014-Apr-16 18:00N 51°25' W 133°29'0 0.3 8.1
2014-Apr-16 17:00N 51°26' W 133°30'0 0.0 8.1
2014-Apr-16 16:00N 51°26' W 133°30'0 0.0 8.1
2014-Apr-16 15:00N 51°26' W 133°30'1 0.8 8.1
2014-Apr-16 14:00N 51°26' W 133°30'1 0.6 8.1
2014-Apr-16 13:00N 51°26' W 133°30'1 1.0 8.2
2014-Apr-16 12:00N 51°26' W 133°31'0 0.3 8.2
2014-Apr-16 11:00N 51°27' W 133°32'0 0.0 8.2
2014-Apr-16 10:00N 51°27' W 133°32'0 0.0 8.2
2014-Apr-16 09:00N 51°27' W 133°32'2 0.6 8.2
2014-Apr-16 06:00N 51°25' W 133°30'1 0.4 8.2
2014-Apr-16 04:00N 51°25' W 133°28'0 0.0 8.2
2014-Apr-16 03:00N 51°25' W 133°28'0 0.0 8.3
2014-Apr-16 02:00N 51°25' W 133°28'0 0.1 8.3
2014-Apr-16 00:00N 51°25' W 133°29'0 0.0 8.3
2014-Apr-15 23:00N 51°25' W 133°29'1 0.3 8.3
2014-Apr-15 21:00N 51°25' W 133°29'0 0.2 8.2
2014-Apr-15 20:00N 51°24' W 133°29'0 0.4 8.2
2014-Apr-15 19:00N 51°24' W 133°29'1 0.3 8.2
2014-Apr-15 17:00N 51°24' W 133°28'0 0.0 8.2
2014-Apr-15 16:00N 51°24' W 133°28'0 0.3 8.2
2014-Apr-15 15:00N 51°24' W 133°28'0 0.1 8.2
2014-Apr-15 14:00N 51°24' W 133°28'1 0.8 8.2
2014-Apr-15 13:00N 51°24' W 133°27'0 0.0 8.2
2014-Apr-15 12:00N 51°24' W 133°27'1 1.2 8.2
2014-Apr-15 11:00N 51°24' W 133°29'0 0.5 8.2
2014-Apr-15 10:00N 51°25' W 133°28'1 0.2 8.2
2014-Apr-15 06:00N 51°24' W 133°29'0 0.2 8.2
2014-Apr-15 05:00N 51°24' W 133°29'1 0.6 8.3
2014-Apr-15 04:00N 51°24' W 133°28'1 1.1 8.3
2014-Apr-15 03:00N 51°24' W 133°27'0 0.0 8.3
2014-Apr-15 02:00N 51°24' W 133°27'1 0.5 8.3
2014-Apr-15 00:00N 51°24' W 133°28'0 0.2 8.3
2014-Apr-14 23:00N 51°24' W 133°28'0 0.2 8.3
2014-Apr-14 21:00N 51°24' W 133°28'0 0.2 8.3
2014-Apr-14 20:00N 51°24' W 133°29'0 0.1 8.3
2014-Apr-14 19:00N 51°25' W 133°29'0 0.1 8.3
2014-Apr-14 18:00N 51°24' W 133°29'0 0.1 8.3
2014-Apr-14 17:00N 51°25' W 133°29'1 0.7 8.3
2014-Apr-14 16:00N 51°24' W 133°30'1 0.8 8.2
2014-Apr-14 15:00N 51°24' W 133°28'1 0.5 8.3
2014-Apr-14 14:00N 51°24' W 133°28'2 0.5 8.3
2014-Apr-14 11:00N 51°23' W 133°29'2 1.7 8.3
2014-Apr-14 10:00N 51°21' W 133°28'0 0.0 8.3
2014-Apr-14 07:00N 51°21' W 133°28'0 0.4 8.4
2014-Apr-14 06:00N 51°21' W 133°27'1 0.9 8.4
2014-Apr-14 05:00N 51°20' W 133°27'0 0.3 8.4
2014-Apr-14 04:00N 51°20' W 133°27'1 0.9 8.4
2014-Apr-14 03:00N 51°20' W 133°25'0 0.5 8.5
2014-Apr-14 02:00N 51°20' W 133°26'0 0.0 8.5
2014-Apr-14 01:00N 51°20' W 133°26'0 0.2 8.5
2014-Apr-14 00:00N 51°20' W 133°26'0 0.1 8.5
2014-Apr-13 23:00N 51°20' W 133°26'1 0.7 8.5
2014-Apr-13 21:00N 51°19' W 133°27'0 0.0 8.5
2014-Apr-13 20:00N 51°19' W 133°27'3 0.6 8.4
2014-Apr-13 15:00N 51°16' W 133°23'1 0.3 8.2
2014-Apr-13 13:00N 51°17' W 133°23'0 0.4 8.2
2014-Apr-13 12:00N 51°17' W 133°22'0 0.5 8.3
2014-Apr-13 11:00N 51°18' W 133°23'1 1.0 8.3
2014-Apr-13 10:00N 51°16' W 133°23'0 0.0 8.3
2014-Apr-13 09:00N 51°16' W 133°23'0 0.0 8.3
2014-Apr-13 07:00N 51°16' W 133°23'0 0.2 8.4
2014-Apr-13 06:00N 51°16' W 133°23'2 0.7 8.4
2014-Apr-13 03:00N 51°15' W 133°21'0 0.3 8.4
2014-Apr-13 02:00N 51°15' W 133°21'0 0.5 8.5
2014-Apr-13 01:00N 51°15' W 133°20'0 0.0 8.5
2014-Apr-13 00:00N 51°15' W 133°20'0 0.0 8.5
2014-Apr-12 23:00N 51°15' W 133°20'0 0.4 8.5
2014-Apr-12 22:00N 51°16' W 133°20'0 0.3 8.4
2014-Apr-12 21:00N 51°16' W 133°19'1 0.6 8.4
2014-Apr-12 20:00N 51°16' W 133°18'1 0.5 8.2
2014-Apr-12 19:00N 51°16' W 133°19'0 0.3 8.2
2014-Apr-12 18:00N 51°16' W 133°19'1 0.6 8.1
2014-Apr-12 17:00N 51°16' W 133°18'0 0.1 8.1
2014-Apr-12 15:00N 51°15' W 133°18'0 0.2 8.1
2014-Apr-12 14:00N 51°15' W 133°18'0 0.2 8.1
2014-Apr-12 13:00N 51°15' W 133°18'0 0.2 8.1
2014-Apr-12 12:00N 51°16' W 133°18'0 0.2 8.1
2014-Apr-12 10:00N 51°16' W 133°17'1 1.1 8.1
2014-Apr-12 09:00N 51°15' W 133°16'0 0.0 8.1
2014-Apr-12 06:00N 51°15' W 133°16'1 1.3 8.1
2014-Apr-12 05:00N 51°15' W 133°14'2 2.0 8.1
2014-Apr-12 04:00N 51°16' W 133°11'2 0.5 8.1
2014-Apr-12 01:00N 51°16' W 133°14'1 0.6 8.1
2014-Apr-12 00:00N 51°16' W 133°15'0 0.5 8.1
2014-Apr-11 23:00N 51°16' W 133°14'1 0.2 8.1
2014-Apr-11 19:00N 51°16' W 133°14'0 0.5 8.1
2014-Apr-11 18:00N 51°15' W 133°14'1 0.4 8.1
2014-Apr-11 15:00N 51°16' W 133°12'1 0.8 8.1
2014-Apr-11 14:00N 51°16' W 133°12'1 0.6 8.1
2014-Apr-11 13:00N 51°17' W 133°11'1 0.8 8.1
2014-Apr-11 12:00N 51°17' W 133°12'0 0.0 8.1
2014-Apr-11 10:00N 51°17' W 133°12'3 2.7 8.1
2014-Apr-11 09:00N 51°16' W 133°16'0 0.0 8.1
2014-Apr-11 06:00N 51°16' W 133°16'1 1.1 8.1
2014-Apr-11 05:00N 51°15' W 133°15'0 0.0 8.1
2014-Apr-11 04:00N 51°15' W 133°15'1 1.2 8.0
2014-Apr-11 03:00N 51°15' W 133°14'0 0.4 8.0
2014-Apr-11 02:00N 51°15' W 133°14'1 0.6 8.0
2014-Apr-11 01:00N 51°15' W 133°13'1 1.1 8.0
2014-Apr-11 00:00N 51°15' W 133°15'1 0.3 8.0
2014-Apr-10 21:00N 51°15' W 133°15'1 0.6 8.0
2014-Apr-10 20:00N 51°16' W 133°16'2 1.7 8.0
2014-Apr-10 19:00N 51°15' W 133°19'0 0.3 8.0
2014-Apr-10 18:00N 51°15' W 133°18'2 1.5 8.0
2014-Apr-10 17:00N 51°14' W 133°20'1 1.2 8.0
2014-Apr-10 16:00N 51°13' W 133°19'1 0.5 8.0
2014-Apr-10 14:00N 51°12' W 133°19'1 0.3 8.0
2014-Apr-10 12:00N 51°12' W 133°19'0 0.0 7.9
2014-Apr-10 11:00N 51°12' W 133°19'1 0.3 7.9
2014-Apr-10 09:00N 51°12' W 133°20'1 0.2 7.9
2014-Apr-10 06:00N 51°12' W 133°21'1 1.2 7.9
2014-Apr-10 05:00N 51°12' W 133°23'1 0.7 7.8
2014-Apr-10 04:00N 51°11' W 133°23'0 0.0 7.8
2014-Apr-10 03:00N 51°11' W 133°23'1 1.0 7.8
2014-Apr-10 02:00N 51°11' W 133°24'1 1.0 7.9
2014-Apr-10 01:00N 51°10' W 133°26'1 1.0 7.9
2014-Apr-10 00:00N 51°09' W 133°27'0 0.0 7.9
2014-Apr-09 23:00N 51°09' W 133°27'0 0.2 7.9
2014-Apr-09 22:00N 51°10' W 133°27'1 1.1 7.9
2014-Apr-09 21:00N 51°09' W 133°28'0 0.4 7.9
2014-Apr-09 20:00N 51°08' W 133°28'1 0.5 7.9
2014-Apr-09 19:00N 51°08' W 133°28'1 1.0 7.9
2014-Apr-09 18:00N 51°07' W 133°29'0 0.0 7.8
2014-Apr-09 16:00N 51°07' W 133°29'0 0.1 7.8
2014-Apr-09 14:00N 51°07' W 133°29'0 0.4 7.8
2014-Apr-09 13:00N 51°08' W 133°29'2 2.0 7.8
2014-Apr-09 12:00N 51°08' W 133°32'0 0.5 7.8
2014-Apr-09 11:00N 51°07' W 133°32'0 0.1 7.8
2014-Apr-09 09:00N 51°07' W 133°32'1 0.7 7.8
2014-Apr-09 07:00N 51°06' W 133°33'0 0.2 7.8
2014-Apr-09 06:00N 51°06' W 133°33'1 0.9 7.8
2014-Apr-09 05:00N 51°05' W 133°34'0 0.1 7.9
2014-Apr-09 04:00N 51°05' W 133°34'1 1.4 7.8
2014-Apr-09 03:00N 51°05' W 133°32'0 0.0 7.9
2014-Apr-09 01:00N 51°05' W 133°32'0 0.4 7.9
2014-Apr-09 00:00N 51°05' W 133°31'1 1.1 7.9
2014-Apr-08 23:00N 51°06' W 133°32'0 0.5 7.9
2014-Apr-08 22:00N 51°07' W 133°33'1 1.4 7.9
2014-Apr-08 21:00N 51°07' W 133°35'0 0.1 7.8
2014-Apr-08 20:00N 51°07' W 133°35'1 1.1 7.8
2014-Apr-08 19:00N 51°07' W 133°37'0 0.0 7.8
2014-Apr-08 18:00N 51°07' W 133°37'2 2.3 7.8
2014-Apr-08 17:00N 51°05' W 133°38'1 0.3 7.8
2014-Apr-08 15:00N 51°05' W 133°37'1 1.1 7.8
2014-Apr-08 14:00N 51°04' W 133°36'0 0.0 7.8
2014-Apr-08 13:00N 51°04' W 133°36'0 0.4 7.8
2014-Apr-08 12:00N 51°04' W 133°36'1 0.7 7.8
2014-Apr-08 11:00N 51°05' W 133°36'   7.8

Dump ship's entire track history

sailing weather and tide predictions

Buoy 46562